createdAt,value
2018-12-11T00:01:38.402Z,4.43
2018-12-11T00:03:42.630Z,3.50
2018-12-11T00:05:46.828Z,4.00
2018-12-11T00:07:51.230Z,3.70
2018-12-11T00:09:55.549Z,4.07
2018-12-11T00:11:59.857Z,4.50
2018-12-11T00:14:04.200Z,3.83
2018-12-11T00:16:08.719Z,3.70
2018-12-11T00:18:13.013Z,3.40
2018-12-11T00:20:17.284Z,3.60
2018-12-11T00:22:21.650Z,3.80
2018-12-11T00:24:26.054Z,4.10
2018-12-11T00:26:30.482Z,4.33
2018-12-11T00:28:34.696Z,4.23
2018-12-11T00:30:39.020Z,5.30
2018-12-11T00:32:43.539Z,4.10
2018-12-11T00:34:47.950Z,3.90
2018-12-11T00:36:52.269Z,4.50
2018-12-11T00:38:56.541Z,3.87
2018-12-11T00:41:00.659Z,3.27
2018-12-11T00:43:05.214Z,3.27
2018-12-11T00:45:09.745Z,3.07
2018-12-11T00:47:13.945Z,3.63
2018-12-11T00:49:18.267Z,4.20
2018-12-11T00:51:22.749Z,3.80
2018-12-11T00:53:27.184Z,4.00
2018-12-11T00:55:31.566Z,3.90
2018-12-11T00:57:35.944Z,4.70
2018-12-11T00:59:40.307Z,3.27
2018-12-11T01:01:44.784Z,3.90
2018-12-11T01:03:49.071Z,3.70
2018-12-11T01:05:53.717Z,3.33
2018-12-11T01:07:57.837Z,3.93
2018-12-11T01:10:04.427Z,3.77
2018-12-11T01:12:08.717Z,4.10
2018-12-11T01:14:13.298Z,4.00
2018-12-11T01:16:17.715Z,3.60
2018-12-11T01:18:22.031Z,4.00
2018-12-11T01:20:26.325Z,3.67
2018-12-11T01:22:30.773Z,3.53
2018-12-11T01:24:35.059Z,4.03
2018-12-11T01:26:39.514Z,3.37
2018-12-11T01:28:45.101Z,3.70
2018-12-11T01:30:49.469Z,3.43
2018-12-11T01:32:53.586Z,4.80
2018-12-11T01:34:58.132Z,3.97
2018-12-11T01:37:02.389Z,3.57
2018-12-11T01:39:09.450Z,4.17
2018-12-11T01:41:14.012Z,3.23
2018-12-11T01:43:18.537Z,3.73
2018-12-11T01:45:22.717Z,3.83
2018-12-11T01:47:27.052Z,4.20
2018-12-11T01:49:31.465Z,3.70
2018-12-11T01:51:35.778Z,4.30
2018-12-11T01:53:40.299Z,3.60
2018-12-11T01:55:44.625Z,4.00
2018-12-11T01:57:49.031Z,4.20
2018-12-11T01:59:53.548Z,4.20
2018-12-11T02:01:57.735Z,3.70
2018-12-11T02:04:02.184Z,3.40
2018-12-11T02:06:06.480Z,6.07
2018-12-11T02:08:10.935Z,3.30
2018-12-11T02:10:15.185Z,4.20
2018-12-11T02:12:19.543Z,4.13
2018-12-11T02:14:23.775Z,4.00
2018-12-11T02:16:28.037Z,4.33
2018-12-11T02:18:32.387Z,3.63
2018-12-11T02:20:36.701Z,3.20
2018-12-11T02:22:41.110Z,3.20
2018-12-11T02:24:45.636Z,3.97
2018-12-11T02:26:50.207Z,3.53
2018-12-11T02:28:54.671Z,3.90
2018-12-11T02:30:58.998Z,3.47
2018-12-11T02:33:03.200Z,3.60
2018-12-11T02:35:07.524Z,3.50
2018-12-11T02:37:11.958Z,4.33
2018-12-11T02:39:16.312Z,5.20
2018-12-11T02:41:20.684Z,3.53
2018-12-11T02:43:25.000Z,3.63
2018-12-11T02:45:29.461Z,4.20
2018-12-11T02:47:33.918Z,3.53
2018-12-11T02:49:38.254Z,3.73
2018-12-11T02:51:42.548Z,4.30
2018-12-11T02:53:46.689Z,4.13
2018-12-11T02:55:50.995Z,4.70
2018-12-11T02:57:55.476Z,3.97
2018-12-11T02:59:59.892Z,3.63
2018-12-11T03:02:04.311Z,4.37
2018-12-11T03:04:08.646Z,3.87
2018-12-11T03:06:12.934Z,3.80
2018-12-11T03:08:17.372Z,4.87
2018-12-11T03:10:21.578Z,4.10
2018-12-11T03:12:25.803Z,3.90
2018-12-11T03:14:30.365Z,4.20
2018-12-11T03:16:34.606Z,4.10
2018-12-11T03:18:38.953Z,4.07
2018-12-11T03:20:43.246Z,4.40
2018-12-11T03:22:47.650Z,4.50
2018-12-11T03:24:51.919Z,4.27
2018-12-11T03:26:56.196Z,4.77
2018-12-11T03:29:00.593Z,3.97
2018-12-11T03:31:05.010Z,4.10
2018-12-11T03:33:09.350Z,4.47
2018-12-11T03:35:13.890Z,3.67
2018-12-11T03:37:18.118Z,4.13
2018-12-11T03:39:22.402Z,3.93
2018-12-11T03:41:26.898Z,4.30
2018-12-11T03:43:31.249Z,4.87
2018-12-11T03:45:35.658Z,4.10
2018-12-11T03:47:39.850Z,3.87
2018-12-11T03:49:44.209Z,3.90
2018-12-11T03:51:48.692Z,4.10
2018-12-11T03:53:52.987Z,4.30
2018-12-11T03:55:57.232Z,4.07
2018-12-11T03:58:01.632Z,3.80
2018-12-11T04:00:07.153Z,4.00
2018-12-11T04:02:34.804Z,4.10
2018-12-11T04:04:39.189Z,3.90
2018-12-11T04:06:43.295Z,3.83
2018-12-11T04:08:47.570Z,3.33
2018-12-11T04:10:51.692Z,3.30
2018-12-11T04:12:56.954Z,3.10
2018-12-11T04:15:01.518Z,3.50
2018-12-11T04:17:05.957Z,3.50
2018-12-11T04:19:10.226Z,3.70
2018-12-11T04:21:14.505Z,4.00
2018-12-11T04:23:18.800Z,3.20
2018-12-11T04:25:23.200Z,3.80
2018-12-11T04:27:27.561Z,3.97
2018-12-11T04:29:31.779Z,3.30
2018-12-11T04:31:35.960Z,3.50
2018-12-11T04:33:40.229Z,3.67
2018-12-11T04:35:44.838Z,3.40
2018-12-11T04:37:49.406Z,3.60
2018-12-11T04:39:53.678Z,3.23
2018-12-11T04:41:58.163Z,3.50
2018-12-11T04:44:02.346Z,3.27
2018-12-11T04:46:06.682Z,3.17
2018-12-11T04:48:11.408Z,2.70
2018-12-11T04:50:15.838Z,3.63
2018-12-11T04:52:20.279Z,3.70
2018-12-11T04:54:24.813Z,2.93
2018-12-11T04:56:29.273Z,3.47
2018-12-11T04:58:33.728Z,3.10
2018-12-11T05:00:38.400Z,4.90
2018-12-11T05:02:42.969Z,3.97
2018-12-11T05:04:47.541Z,2.70
2018-12-11T05:06:51.745Z,3.33
2018-12-11T05:08:56.478Z,2.40
2018-12-11T05:11:00.910Z,2.70
2018-12-11T05:13:05.316Z,2.60
2018-12-11T05:15:09.539Z,2.53
2018-12-11T05:17:15.759Z,2.57
2018-12-11T05:19:20.197Z,3.00
2018-12-11T05:21:24.603Z,2.40
2018-12-11T05:23:28.969Z,2.33
2018-12-11T05:25:33.589Z,2.47
2018-12-11T05:27:37.855Z,2.90
2018-12-11T05:29:42.219Z,3.00
2018-12-11T05:31:46.574Z,3.40
2018-12-11T05:33:50.841Z,3.30
2018-12-11T05:35:55.155Z,2.67
2018-12-11T05:37:59.281Z,3.03
2018-12-11T05:40:03.582Z,2.43
2018-12-11T05:42:08.249Z,2.37
2018-12-11T05:44:12.613Z,2.90
2018-12-11T05:46:16.902Z,3.20
2018-12-11T05:48:21.122Z,2.53
2018-12-11T05:50:25.461Z,3.30
2018-12-11T05:52:29.782Z,2.80
2018-12-11T05:54:34.087Z,2.47
2018-12-11T05:56:38.554Z,2.90
2018-12-11T05:58:42.796Z,3.10
2018-12-11T06:00:48.484Z,2.70
2018-12-11T06:02:54.209Z,3.23
2018-12-11T06:04:58.462Z,3.37
2018-12-11T06:07:02.876Z,2.93
2018-12-11T06:09:09.063Z,2.70
2018-12-11T06:11:13.432Z,3.13
2018-12-11T06:13:17.965Z,2.77
2018-12-11T06:15:22.240Z,3.23
2018-12-11T06:17:26.601Z,3.63
2018-12-11T06:19:30.944Z,2.80
2018-12-11T06:21:35.343Z,2.80
2018-12-11T06:23:39.744Z,3.13
2018-12-11T06:25:44.110Z,3.03
2018-12-11T06:27:48.425Z,3.30
2018-12-11T06:29:52.679Z,3.00
2018-12-11T06:31:57.062Z,3.27
2018-12-11T06:34:01.461Z,2.87
2018-12-11T06:36:05.788Z,3.90
2018-12-11T06:38:10.208Z,2.93
2018-12-11T06:40:14.637Z,3.43
2018-12-11T06:42:19.050Z,4.17
2018-12-11T06:44:23.533Z,3.27
2018-12-11T06:46:27.769Z,3.43
2018-12-11T06:48:32.089Z,3.60
2018-12-11T06:50:36.418Z,3.90
2018-12-11T06:52:40.719Z,3.60
2018-12-11T06:54:45.820Z,3.70
2018-12-11T06:56:54.477Z,3.50
2018-12-11T06:58:59.074Z,3.50
2018-12-11T07:01:03.421Z,3.93
2018-12-11T07:03:07.629Z,3.03
2018-12-11T07:05:12.863Z,3.33
2018-12-11T07:07:17.215Z,5.27
2018-12-11T07:09:21.612Z,3.50
2018-12-11T07:11:25.977Z,3.93
2018-12-11T07:13:30.182Z,3.50
2018-12-11T07:15:34.557Z,3.73
2018-12-11T07:17:38.818Z,3.90
2018-12-11T07:19:43.273Z,3.83
2018-12-11T07:21:57.181Z,3.30
2018-12-11T07:24:01.515Z,3.17
2018-12-11T07:26:05.656Z,2.80
2018-12-11T07:28:09.931Z,3.20
2018-12-11T07:30:14.269Z,3.50
2018-12-11T07:32:18.608Z,4.80
2018-12-11T07:34:22.763Z,4.27
2018-12-11T07:36:26.991Z,4.40
2018-12-11T07:38:31.222Z,3.63
2018-12-11T07:40:35.536Z,3.50
2018-12-11T07:42:39.839Z,2.93
2018-12-11T07:44:44.067Z,3.23
2018-12-11T07:46:48.469Z,3.50
2018-12-11T07:48:53.111Z,3.20
2018-12-11T07:50:57.517Z,3.47
2018-12-11T07:53:01.724Z,3.57
2018-12-11T07:55:06.223Z,3.43
2018-12-11T07:57:10.574Z,4.83
2018-12-11T07:59:14.764Z,3.67
2018-12-11T08:01:19.100Z,4.10
2018-12-11T08:03:23.286Z,2.70
2018-12-11T08:05:27.713Z,2.90
2018-12-11T08:07:32.126Z,3.20
2018-12-11T08:09:36.521Z,3.10
2018-12-11T08:11:40.958Z,3.30
2018-12-11T08:13:45.159Z,3.20
2018-12-11T08:15:49.583Z,2.83
2018-12-11T08:17:54.001Z,2.73
2018-12-11T08:19:58.163Z,3.33
2018-12-11T08:22:02.482Z,2.70
2018-12-11T08:24:06.842Z,2.77
2018-12-11T08:26:12.287Z,3.43
2018-12-11T08:28:16.676Z,2.80
2018-12-11T08:30:20.872Z,2.93
2018-12-11T08:32:25.216Z,3.90
2018-12-11T08:34:29.510Z,2.90
2018-12-11T08:36:33.775Z,2.83
2018-12-11T08:38:37.987Z,2.80
2018-12-11T08:40:42.385Z,2.90
2018-12-11T08:42:46.486Z,3.03
2018-12-11T08:44:51.365Z,2.97
2018-12-11T08:46:55.731Z,2.83
2018-12-11T08:49:00.078Z,2.57
2018-12-11T08:51:04.554Z,2.97
2018-12-11T08:53:08.845Z,2.77
2018-12-11T08:55:13.113Z,3.30
2018-12-11T08:57:17.618Z,3.20
2018-12-11T08:59:21.931Z,2.80
2018-12-11T09:01:26.125Z,3.13
2018-12-11T09:03:30.360Z,3.33
2018-12-11T09:05:34.465Z,3.50
2018-12-11T09:07:38.671Z,3.50
2018-12-11T09:09:43.007Z,3.30
2018-12-11T09:11:47.299Z,3.80
2018-12-11T09:13:51.616Z,3.33
2018-12-11T09:15:55.918Z,3.70
2018-12-11T09:18:00.125Z,3.00
2018-12-11T09:20:04.864Z,3.27
2018-12-11T09:22:09.318Z,3.50
2018-12-11T09:24:13.570Z,3.50
2018-12-11T09:26:17.926Z,3.90
2018-12-11T09:28:22.313Z,3.90
2018-12-11T09:30:26.620Z,5.00
2018-12-11T09:32:30.970Z,4.30
2018-12-11T09:34:35.366Z,3.90
2018-12-11T09:36:39.734Z,4.10
2018-12-11T09:38:44.130Z,4.27
2018-12-11T09:40:48.415Z,4.40
2018-12-11T09:42:52.842Z,4.67
2018-12-11T09:44:57.274Z,3.90
2018-12-11T09:47:01.590Z,3.90
2018-12-11T09:49:05.827Z,3.90
2018-12-11T09:51:10.123Z,4.50
2018-12-11T09:53:14.516Z,5.00
2018-12-11T09:55:18.854Z,2.90
2018-12-11T09:57:23.057Z,3.00
2018-12-11T09:59:27.256Z,9.73
2018-12-11T10:01:31.579Z,3.40
2018-12-11T10:03:36.028Z,2.80
2018-12-11T10:05:40.466Z,2.63
2018-12-11T10:07:44.593Z,2.77
2018-12-11T10:09:48.934Z,2.20
2018-12-11T10:11:53.224Z,2.53
2018-12-11T10:13:57.381Z,2.20
2018-12-11T10:16:01.661Z,2.20
2018-12-11T10:18:06.093Z,2.10
2018-12-11T10:20:10.975Z,2.50
2018-12-11T10:22:15.431Z,2.37
2018-12-11T10:24:21.672Z,2.30
2018-12-11T10:26:25.989Z,2.13
2018-12-11T10:28:30.495Z,2.53
2018-12-11T10:30:40.066Z,4.23
2018-12-11T10:32:48.330Z,2.90
2018-12-11T10:34:52.603Z,3.90
2018-12-11T10:36:56.655Z,4.40
2018-12-11T10:39:01.017Z,6.50
2018-12-11T10:41:05.211Z,4.13
2018-12-11T10:43:09.643Z,3.53
2018-12-11T10:45:13.841Z,3.50
2018-12-11T10:47:18.181Z,2.33
2018-12-11T10:49:22.478Z,4.57
2018-12-11T10:51:26.594Z,3.93
2018-12-11T10:53:30.906Z,3.90
2018-12-11T10:55:35.155Z,3.90
2018-12-11T10:57:39.483Z,4.13
2018-12-11T10:59:43.743Z,2.97
2018-12-11T11:01:50.113Z,4.40
2018-12-11T11:03:54.521Z,5.77
2018-12-11T11:05:58.847Z,3.70
2018-12-11T11:08:03.216Z,2.30
2018-12-11T11:10:08.216Z,4.30
2018-12-11T11:12:12.584Z,5.30
2018-12-11T11:14:16.825Z,2.97
2018-12-11T11:16:21.145Z,2.80
2018-12-11T11:18:25.440Z,2.67
2018-12-11T11:20:29.735Z,2.63
2018-12-11T11:22:34.191Z,2.30
2018-12-11T11:24:38.256Z,2.37
2018-12-11T11:26:42.801Z,2.77
2018-12-11T11:28:47.222Z,3.53
2018-12-11T11:30:51.527Z,3.03
2018-12-11T11:32:55.849Z,2.87
2018-12-11T11:35:00.167Z,2.97
2018-12-11T11:37:04.518Z,2.47
2018-12-11T11:39:09.494Z,2.83
2018-12-11T11:41:13.740Z,2.90
2018-12-11T11:43:18.138Z,2.43
2018-12-11T11:45:22.374Z,2.80
2018-12-11T11:47:26.700Z,2.87
2018-12-11T11:49:30.984Z,2.40
2018-12-11T11:51:35.412Z,2.67
2018-12-11T11:53:39.704Z,2.30
2018-12-11T11:55:44.043Z,2.33
2018-12-11T11:57:48.449Z,2.67
2018-12-11T11:59:52.564Z,2.63
2018-12-11T12:01:56.932Z,2.13
2018-12-11T12:04:01.257Z,2.07
2018-12-11T12:06:05.668Z,2.40
2018-12-11T12:08:09.818Z,2.30
2018-12-11T12:10:13.892Z,2.40
2018-12-11T12:12:18.121Z,2.37
2018-12-11T12:14:22.372Z,2.27
2018-12-11T12:16:26.671Z,1.80
2018-12-11T12:18:30.993Z,2.60
2018-12-11T12:20:35.397Z,2.17
2018-12-11T12:22:39.606Z,3.27
2018-12-11T12:24:43.929Z,2.73
2018-12-11T12:26:48.233Z,2.73
2018-12-11T12:28:52.311Z,2.70
2018-12-11T12:30:58.721Z,2.40
2018-12-11T12:33:02.821Z,2.47
2018-12-11T12:35:07.752Z,2.57
2018-12-11T12:37:12.218Z,2.80
2018-12-11T12:39:16.470Z,2.00
2018-12-11T12:41:20.793Z,2.50
2018-12-11T12:43:25.118Z,2.50
2018-12-11T12:45:29.332Z,2.27
2018-12-11T12:47:33.705Z,1.70
2018-12-11T12:49:38.010Z,2.50
2018-12-11T12:51:42.558Z,2.10
2018-12-11T12:53:46.848Z,5.80
2018-12-11T12:55:51.209Z,5.80
2018-12-11T12:57:55.513Z,5.50
2018-12-11T12:59:59.840Z,5.47
2018-12-11T13:02:04.135Z,8.17
2018-12-11T13:04:08.563Z,4.97
2018-12-11T13:06:13.581Z,4.83
2018-12-11T13:08:18.134Z,3.20
2018-12-11T13:10:22.510Z,3.73
2018-12-11T13:12:27.068Z,2.67
2018-12-11T13:14:31.379Z,3.73
2018-12-11T13:16:35.713Z,4.17
2018-12-11T13:18:39.899Z,5.87
2018-12-11T13:20:44.117Z,4.27
2018-12-11T13:22:48.401Z,3.37
2018-12-11T13:24:52.934Z,3.03
2018-12-11T13:26:57.211Z,3.07
2018-12-11T13:29:01.465Z,4.00
2018-12-11T13:31:07.824Z,3.20
2018-12-11T13:33:12.121Z,2.53
2018-12-11T13:35:16.422Z,2.57
2018-12-11T13:37:20.769Z,2.40
2018-12-11T13:39:25.294Z,2.10
2018-12-11T13:41:29.826Z,2.50
2018-12-11T13:43:34.349Z,3.70
2018-12-11T13:45:38.666Z,3.83
2018-12-11T13:47:42.958Z,3.50
2018-12-11T13:49:47.438Z,3.20
2018-12-11T13:51:51.997Z,3.60
2018-12-11T13:53:56.627Z,2.60
2018-12-11T13:56:01.028Z,2.93
2018-12-11T13:58:05.263Z,3.10
2018-12-11T14:00:09.772Z,3.60
2018-12-11T14:02:14.732Z,2.83
2018-12-11T14:04:19.228Z,5.53
2018-12-11T14:06:23.523Z,3.10
2018-12-11T14:08:28.018Z,4.00
2018-12-11T14:10:32.480Z,3.23
2018-12-11T14:12:36.578Z,3.60
2018-12-11T14:14:40.892Z,2.70
2018-12-11T14:16:45.112Z,2.50
2018-12-11T14:18:49.561Z,2.80
2018-12-11T14:20:53.635Z,2.50
2018-12-11T14:22:57.909Z,2.60
2018-12-11T14:25:02.527Z,3.17
2018-12-11T14:27:06.777Z,2.87
2018-12-11T14:29:11.097Z,2.83
2018-12-11T14:31:15.981Z,2.80
2018-12-11T14:33:20.308Z,3.40
2018-12-11T14:35:24.486Z,2.40
2018-12-11T14:37:28.999Z,3.10
2018-12-11T14:39:33.415Z,3.03
2018-12-11T14:41:37.905Z,2.70
2018-12-11T14:43:42.077Z,3.67
2018-12-11T14:45:46.551Z,3.60
2018-12-11T14:47:50.706Z,3.70
2018-12-11T14:49:55.055Z,4.53
2018-12-11T14:51:59.359Z,3.53
2018-12-11T14:54:03.704Z,2.90
2018-12-11T14:56:07.949Z,3.50
2018-12-11T14:58:12.405Z,3.80
2018-12-11T15:00:17.550Z,2.73
2018-12-11T15:02:21.745Z,3.30
2018-12-11T15:04:26.079Z,3.80
2018-12-11T15:06:30.484Z,4.00
2018-12-11T15:08:35.823Z,4.20
2018-12-11T15:10:40.236Z,6.07
2018-12-11T15:12:44.454Z,6.20
2018-12-11T15:14:48.938Z,5.60
2018-12-11T15:16:54.445Z,4.50
2018-12-11T15:18:59.019Z,3.00
2018-12-11T15:21:03.245Z,3.00
2018-12-11T15:23:07.470Z,2.00
2018-12-11T15:25:11.891Z,1.60
2018-12-11T15:27:16.314Z,1.93
2018-12-11T15:29:20.767Z,1.70
2018-12-11T15:31:25.051Z,2.93
2018-12-11T15:33:29.318Z,3.40
2018-12-11T15:35:33.860Z,4.03
2018-12-11T15:37:38.244Z,12.67
2018-12-11T15:39:42.811Z,50.20
2018-12-11T15:41:47.141Z,17.27
2018-12-11T15:43:51.315Z,16.23
2018-12-11T15:46:01.021Z,13.37
2018-12-11T15:48:02.781Z,6.47
2018-12-11T15:50:07.867Z,12.40
2018-12-11T15:52:12.403Z,9.73
2018-12-11T15:54:16.802Z,8.87
2018-12-11T15:56:21.279Z,6.73
2018-12-11T15:58:25.500Z,3.60
2018-12-11T16:00:30.732Z,2.80
2018-12-11T16:02:35.109Z,2.70
2018-12-11T16:04:40.235Z,2.70
2018-12-11T16:06:44.631Z,3.80
2018-12-11T16:08:49.150Z,3.27
2018-12-11T16:10:54.022Z,3.70
2018-12-11T16:12:58.293Z,4.97
2018-12-11T16:15:02.726Z,14.90
2018-12-11T16:17:07.129Z,32.00
2018-12-11T16:19:11.431Z,20.20
2018-12-11T16:21:17.317Z,26.67
2018-12-11T16:23:22.460Z,8.80
2018-12-11T16:25:26.808Z,7.00
2018-12-11T16:27:31.314Z,6.97
2018-12-11T16:29:35.653Z,6.20
2018-12-11T16:31:40.156Z,5.70
2018-12-11T16:33:44.639Z,5.00
2018-12-11T16:35:53.520Z,4.43
2018-12-11T16:37:59.102Z,4.37
2018-12-11T16:40:04.756Z,4.70
2018-12-11T16:42:09.245Z,4.20
2018-12-11T16:44:13.710Z,5.83
2018-12-11T16:46:17.961Z,5.73
2018-12-11T16:48:22.576Z,5.87
2018-12-11T16:50:26.909Z,7.37
2018-12-11T16:52:31.347Z,7.80
2018-12-11T16:54:35.588Z,25.90
2018-12-11T16:56:40.256Z,17.57
2018-12-11T16:58:46.372Z,16.00
2018-12-11T17:00:51.182Z,10.43
2018-12-11T17:02:55.461Z,8.30
2018-12-11T17:04:59.989Z,7.37
2018-12-11T17:07:04.296Z,7.73
2018-12-11T17:09:10.747Z,7.30
2018-12-11T17:11:15.091Z,6.63
2018-12-11T17:13:23.870Z,6.40
2018-12-11T17:15:28.469Z,6.90
2018-12-11T17:17:33.331Z,6.73
2018-12-11T17:19:37.527Z,6.23
2018-12-11T17:21:46.956Z,5.70
2018-12-11T17:23:48.343Z,9.60
2018-12-11T17:25:52.826Z,9.43
2018-12-11T17:27:57.492Z,7.20
2018-12-11T17:30:01.756Z,8.20
2018-12-11T17:32:06.218Z,24.73
2018-12-11T17:34:10.642Z,16.40
2018-12-11T17:36:14.918Z,14.67
2018-12-11T17:38:19.367Z,13.90
2018-12-11T17:40:23.840Z,15.50
2018-12-11T17:42:28.379Z,11.43
2018-12-11T17:44:32.822Z,11.57
2018-12-11T17:46:37.093Z,11.20
2018-12-11T17:48:41.832Z,11.00
2018-12-11T17:50:46.426Z,12.97
2018-12-11T17:52:50.911Z,13.13
2018-12-11T17:54:55.022Z,25.90
2018-12-11T17:56:59.033Z,13.67
2018-12-11T17:59:03.438Z,18.10
2018-12-11T18:01:08.327Z,17.80
2018-12-11T18:03:12.610Z,17.03
2018-12-11T18:05:16.859Z,10.80
2018-12-11T18:07:21.116Z,13.00
2018-12-11T18:09:25.517Z,13.13
2018-12-11T18:11:29.782Z,12.10
2018-12-11T18:13:34.349Z,9.17
2018-12-11T18:15:38.652Z,7.90
2018-12-11T18:17:42.874Z,19.53
2018-12-11T18:19:48.206Z,24.00
2018-12-11T18:21:53.663Z,12.13
2018-12-11T18:23:58.078Z,8.00
2018-12-11T18:26:02.691Z,6.60
2018-12-11T18:28:06.943Z,5.50
2018-12-11T18:30:12.512Z,5.43
2018-12-11T18:32:16.767Z,5.60
2018-12-11T18:34:21.610Z,6.17
2018-12-11T18:36:26.149Z,4.93
2018-12-11T18:38:30.767Z,6.47
2018-12-11T18:40:35.202Z,8.00
2018-12-11T18:42:39.571Z,7.60
2018-12-11T18:44:43.880Z,9.33
2018-12-11T18:46:48.399Z,12.03
2018-12-11T18:48:52.826Z,13.07
2018-12-11T18:50:57.262Z,11.10
2018-12-11T18:53:01.845Z,10.40
2018-12-11T18:55:06.329Z,8.20
2018-12-11T18:57:10.678Z,7.80
2018-12-11T18:59:14.897Z,9.53
2018-12-11T19:01:19.257Z,11.90
2018-12-11T19:03:23.701Z,15.77
2018-12-11T19:05:28.257Z,44.47
2018-12-11T19:07:33.673Z,51.50
2018-12-11T19:09:38.315Z,23.60
2018-12-11T19:11:42.506Z,13.50
2018-12-11T19:13:46.836Z,7.60
2018-12-11T19:15:51.590Z,11.60
2018-12-11T19:17:55.962Z,7.00
2018-12-11T19:20:00.175Z,12.40
2018-12-11T19:22:04.719Z,11.70
2018-12-11T19:24:14.776Z,14.17
2018-12-11T19:26:19.391Z,11.03
2018-12-11T19:28:23.676Z,7.93
2018-12-11T19:30:28.224Z,20.37
2018-12-11T19:32:32.748Z,16.80
2018-12-11T19:34:37.050Z,11.47
2018-12-11T19:36:41.265Z,12.23
2018-12-11T19:38:46.941Z,9.27
2018-12-11T19:40:51.184Z,7.00
2018-12-11T19:42:55.470Z,10.10
2018-12-11T19:44:59.694Z,12.10
2018-12-11T19:47:04.462Z,11.93
2018-12-11T19:49:08.683Z,7.87
2018-12-11T19:51:14.259Z,10.53
2018-12-11T19:53:18.773Z,8.60
2018-12-11T19:55:23.162Z,9.87
2018-12-11T19:57:27.358Z,9.87
2018-12-11T19:59:31.685Z,9.33
2018-12-11T20:01:37.261Z,10.13
2018-12-11T20:03:41.901Z,11.33
2018-12-11T20:05:46.155Z,10.60
2018-12-11T20:07:50.269Z,8.77
2018-12-11T20:09:59.611Z,6.60
2018-12-11T20:12:09.978Z,6.90
2018-12-11T20:14:14.193Z,9.67
2018-12-11T20:16:18.724Z,10.17
2018-12-11T20:18:23.026Z,9.80
2018-12-11T20:20:29.502Z,6.80
2018-12-11T20:22:33.712Z,8.23
2018-12-11T20:24:38.009Z,6.60
2018-12-11T20:26:42.439Z,6.40
2018-12-11T20:28:46.766Z,7.30
2018-12-11T20:30:51.137Z,7.33
2018-12-11T20:32:55.489Z,15.13
2018-12-11T20:34:59.704Z,12.87
2018-12-11T20:37:04.020Z,11.87
2018-12-11T20:39:08.425Z,9.50
2018-12-11T20:41:12.645Z,22.10
2018-12-11T20:43:17.225Z,19.53
2018-12-11T20:45:21.828Z,9.13
2018-12-11T20:47:26.364Z,39.40
2018-12-11T20:49:30.849Z,25.27
2018-12-11T20:51:35.285Z,11.83
2018-12-11T20:53:39.451Z,11.77
2018-12-11T20:55:43.665Z,9.90
2018-12-11T20:57:48.012Z,9.53
2018-12-11T20:59:52.892Z,13.07
2018-12-11T21:01:57.318Z,11.93
2018-12-11T21:04:01.517Z,17.77
2018-12-11T21:06:07.181Z,12.87
2018-12-11T21:08:11.700Z,9.43
2018-12-11T21:10:16.217Z,9.13
2018-12-11T21:12:20.811Z,13.20
2018-12-11T21:14:25.263Z,12.33
2018-12-11T21:16:35.863Z,11.70
2018-12-11T21:18:40.303Z,10.80
2018-12-11T21:20:44.938Z,12.00
2018-12-11T21:22:49.187Z,12.57
2018-12-11T21:24:53.408Z,11.03
2018-12-11T21:26:57.707Z,11.47
2018-12-11T21:29:02.327Z,10.07
2018-12-11T21:31:07.048Z,11.30
2018-12-11T21:33:11.654Z,11.17
2018-12-11T21:35:16.047Z,16.03
2018-12-11T21:37:20.424Z,8.83
2018-12-11T21:39:24.519Z,9.73
2018-12-11T21:41:28.843Z,10.00
2018-12-11T21:43:33.238Z,11.83
2018-12-11T21:45:37.589Z,11.93
2018-12-11T21:47:42.335Z,14.10
2018-12-11T21:49:47.003Z,18.50
2018-12-11T21:51:51.324Z,17.90
2018-12-11T21:53:55.865Z,13.70
2018-12-11T21:56:00.367Z,11.70
2018-12-11T21:58:04.791Z,13.17
2018-12-11T22:00:11.217Z,12.47
2018-12-11T22:02:15.553Z,12.30
2018-12-11T22:04:21.531Z,17.40
2018-12-11T22:06:26.050Z,21.57
2018-12-11T22:08:30.339Z,22.00
2018-12-11T22:10:34.716Z,19.83
2018-12-11T22:12:39.729Z,17.97
2018-12-11T22:14:44.056Z,17.57
2018-12-11T22:16:48.376Z,18.90
2018-12-11T22:18:52.735Z,19.20
2018-12-11T22:20:57.150Z,19.00
2018-12-11T22:23:01.474Z,14.80
2018-12-11T22:25:06.108Z,12.87
2018-12-11T22:27:10.522Z,10.80
2018-12-11T22:29:14.944Z,11.50
2018-12-11T22:31:19.245Z,12.80
2018-12-11T22:33:23.460Z,11.90
2018-12-11T22:35:27.874Z,12.20
2018-12-11T22:37:32.135Z,11.30
2018-12-11T22:39:36.412Z,11.90
2018-12-11T22:41:40.706Z,10.80
2018-12-11T22:43:45.029Z,11.57
2018-12-11T22:45:49.323Z,10.00
2018-12-11T22:47:53.782Z,10.73
2018-12-11T22:49:57.965Z,9.50
2018-12-11T22:52:02.486Z,9.97
2018-12-11T22:54:06.932Z,10.37
2018-12-11T22:56:11.154Z,9.00
2018-12-11T22:58:15.407Z,8.73
2018-12-11T23:00:19.830Z,11.23
2018-12-11T23:02:25.536Z,10.90
2018-12-11T23:04:29.909Z,11.00
2018-12-11T23:06:34.253Z,9.13
2018-12-11T23:08:38.730Z,8.93
2018-12-11T23:10:43.306Z,9.10
2018-12-11T23:12:47.683Z,9.73
2018-12-11T23:14:51.766Z,8.40
2018-12-11T23:16:56.071Z,8.97
2018-12-11T23:19:00.307Z,10.57
2018-12-11T23:21:04.436Z,8.97
2018-12-11T23:23:08.606Z,8.90
2018-12-11T23:25:12.844Z,9.60
2018-12-11T23:27:17.072Z,9.80
2018-12-11T23:29:21.581Z,10.10
2018-12-11T23:31:25.872Z,10.80
2018-12-11T23:33:30.231Z,8.70
2018-12-11T23:35:34.706Z,8.97
2018-12-11T23:37:38.950Z,9.43
2018-12-11T23:39:43.242Z,8.80
2018-12-11T23:41:47.673Z,9.50
2018-12-11T23:43:51.945Z,8.83
2018-12-11T23:45:56.024Z,10.83
2018-12-11T23:48:00.334Z,9.30
2018-12-11T23:50:07.976Z,9.87
2018-12-11T23:52:12.202Z,9.53
2018-12-11T23:54:16.396Z,9.73
2018-12-11T23:56:20.782Z,9.33
2018-12-11T23:58:25.192Z,9.57
